sensor_id;sensor_type;location;lat;lon;timestamp;temperature;humidity
20915;DHT22;10617;52.032;5.298;2022-09-20T00:02:34;13.30;99.90
20915;DHT22;10617;52.032;5.298;2022-09-20T00:06:36;13.20;99.90
20915;DHT22;10617;52.032;5.298;2022-09-20T00:10:38;13.10;99.90
20915;DHT22;10617;52.032;5.298;2022-09-20T00:14:39;13.10;99.90
20915;DHT22;10617;52.032;5.298;2022-09-20T00:18:41;13.10;99.90
20915;DHT22;10617;52.032;5.298;2022-09-20T00:22:43;13.10;99.90
20915;DHT22;10617;52.032;5.298;2022-09-20T00:26:45;13.10;99.90
20915;DHT22;10617;52.032;5.298;2022-09-20T00:30:46;13.00;99.90
20915;DHT22;10617;52.032;5.298;2022-09-20T00:34:49;13.00;99.90
20915;DHT22;10617;52.032;5.298;2022-09-20T00:39:13;13.00;99.90
20915;DHT22;10617;52.032;5.298;2022-09-20T00:43:16;12.90;99.90
20915;DHT22;10617;52.032;5.298;2022-09-20T00:47:26;13.00;99.90
20915;DHT22;10617;52.032;5.298;2022-09-20T00:51:34;12.90;99.90
20915;DHT22;10617;52.032;5.298;2022-09-20T00:55:41;12.90;99.90
20915;DHT22;10617;52.032;5.298;2022-09-20T00:59:45;12.80;99.90
20915;DHT22;10617;52.032;5.298;2022-09-20T01:03:48;12.80;99.90
20915;DHT22;10617;52.032;5.298;2022-09-20T01:07:50;12.70;99.90
20915;DHT22;10617;52.032;5.298;2022-09-20T01:11:54;12.70;99.90
20915;DHT22;10617;52.032;5.298;2022-09-20T01:15:57;12.70;99.90
20915;DHT22;10617;52.032;5.298;2022-09-20T01:24:21;12.60;99.90
20915;DHT22;10617;52.032;5.298;2022-09-20T01:28:24;12.70;99.90
20915;DHT22;10617;52.032;5.298;2022-09-20T01:38:14;12.60;99.90
20915;DHT22;10617;52.032;5.298;2022-09-20T01:42:17;12.60;99.90
20915;DHT22;10617;52.032;5.298;2022-09-20T01:46:29;12.60;99.90
20915;DHT22;10617;52.032;5.298;2022-09-20T02:12:50;12.70;99.90
20915;DHT22;10617;52.032;5.298;2022-09-20T02:17:09;12.80;99.90
20915;DHT22;10617;52.032;5.298;2022-09-20T02:26:01;12.80;99.90
20915;DHT22;10617;52.032;5.298;2022-09-20T02:30:22;12.80;99.90
20915;DHT22;10617;52.032;5.298;2022-09-20T02:38:56;12.70;99.90
20915;DHT22;10617;52.032;5.298;2022-09-20T02:47:42;12.70;99.90
20915;DHT22;10617;52.032;5.298;2022-09-20T02:52:16;12.60;99.90
20915;DHT22;10617;52.032;5.298;2022-09-20T03:01:00;12.70;99.90
20915;DHT22;10617;52.032;5.298;2022-09-20T03:05:10;12.60;99.90
20915;DHT22;10617;52.032;5.298;2022-09-20T03:09:33;12.60;99.90
20915;DHT22;10617;52.032;5.298;2022-09-20T03:17:57;12.50;99.90
20915;DHT22;10617;52.032;5.298;2022-09-20T03:30:21;12.40;99.90
20915;DHT22;10617;52.032;5.298;2022-09-20T03:34:44;12.30;99.90
20915;DHT22;10617;52.032;5.298;2022-09-20T03:51:55;12.20;99.90
20915;DHT22;10617;52.032;5.298;2022-09-20T04:00:28;12.10;99.90
20915;DHT22;10617;52.032;5.298;2022-09-20T04:04:48;12.10;99.90
20915;DHT22;10617;52.032;5.298;2022-09-20T04:21:53;11.90;99.90
20915;DHT22;10617;52.032;5.298;2022-09-20T04:25:58;11.90;99.90
20915;DHT22;10617;52.032;5.298;2022-09-20T04:30:20;11.90;99.90
20915;DHT22;10617;52.032;5.298;2022-09-20T04:34:27;11.90;99.90
20915;DHT22;10617;52.032;5.298;2022-09-20T04:39:25;11.90;99.90
20915;DHT22;10617;52.032;5.298;2022-09-20T04:57:02;11.80;99.90
20915;DHT22;10617;52.032;5.298;2022-09-20T05:23:05;11.70;99.90
20915;DHT22;10617;52.032;5.298;2022-09-20T05:31:50;11.70;99.90
20915;DHT22;10617;52.032;5.298;2022-09-20T05:36:27;11.60;99.90
20915;DHT22;10617;52.032;5.298;2022-09-20T05:41:11;11.60;99.90
20915;DHT22;10617;52.032;5.298;2022-09-20T05:45:31;11.50;99.90
20915;DHT22;10617;52.032;5.298;2022-09-20T05:49:51;11.50;99.90
20915;DHT22;10617;52.032;5.298;2022-09-20T05:58:04;11.40;99.90
20915;DHT22;10617;52.032;5.298;2022-09-20T06:10:45;11.40;99.90
20915;DHT22;10617;52.032;5.298;2022-09-20T06:15:02;11.40;99.90
20915;DHT22;10617;52.032;5.298;2022-09-20T06:19:32;11.50;99.90
20915;DHT22;10617;52.032;5.298;2022-09-20T06:23:37;11.50;99.90
20915;DHT22;10617;52.032;5.298;2022-09-20T06:27:49;11.60;99.90
20915;DHT22;10617;52.032;5.298;2022-09-20T06:31:52;11.60;99.90
20915;DHT22;10617;52.032;5.298;2022-09-20T06:36:18;11.70;99.90
20915;DHT22;10617;52.032;5.298;2022-09-20T06:40:49;11.80;99.90
20915;DHT22;10617;52.032;5.298;2022-09-20T06:45:20;11.90;99.90
20915;DHT22;10617;52.032;5.298;2022-09-20T06:49:22;12.00;99.90
20915;DHT22;10617;52.032;5.298;2022-09-20T06:53:30;12.00;99.90
20915;DHT22;10617;52.032;5.298;2022-09-20T06:57:35;12.00;99.90
20915;DHT22;10617;52.032;5.298;2022-09-20T07:01:38;12.00;99.90
20915;DHT22;10617;52.032;5.298;2022-09-20T07:05:40;12.00;99.90
20915;DHT22;10617;52.032;5.298;2022-09-20T07:09:42;12.00;99.90
20915;DHT22;10617;52.032;5.298;2022-09-20T07:13:44;12.00;99.90
20915;DHT22;10617;52.032;5.298;2022-09-20T07:23:12;12.30;99.90
20915;DHT22;10617;52.032;5.298;2022-09-20T07:27:16;12.40;99.90
20915;DHT22;10617;52.032;5.298;2022-09-20T07:31:19;12.50;99.90
20915;DHT22;10617;52.032;5.298;2022-09-20T07:35:21;12.50;99.90
20915;DHT22;10617;52.032;5.298;2022-09-20T07:39:23;12.70;99.90
20915;DHT22;10617;52.032;5.298;2022-09-20T07:43:25;12.90;99.90
20915;DHT22;10617;52.032;5.298;2022-09-20T07:47:28;13.00;99.90
20915;DHT22;10617;52.032;5.298;2022-09-20T07:51:32;13.20;99.90
20915;DHT22;10617;52.032;5.298;2022-09-20T07:55:34;13.30;99.90
20915;DHT22;10617;52.032;5.298;2022-09-20T07:59:36;13.30;99.90
20915;DHT22;10617;52.032;5.298;2022-09-20T08:03:38;13.40;99.90
20915;DHT22;10617;52.032;5.298;2022-09-20T08:07:39;13.50;99.90
20915;DHT22;10617;52.032;5.298;2022-09-20T08:11:42;13.50;99.90
20915;DHT22;10617;52.032;5.298;2022-09-20T08:15:44;13.50;99.90
20915;DHT22;10617;52.032;5.298;2022-09-20T08:19:45;13.40;99.90
20915;DHT22;10617;52.032;5.298;2022-09-20T08:23:48;13.40;99.90
20915;DHT22;10617;52.032;5.298;2022-09-20T08:27:53;13.40;99.90
20915;DHT22;10617;52.032;5.298;2022-09-20T08:31:54;13.40;99.90
20915;DHT22;10617;52.032;5.298;2022-09-20T08:35:59;13.40;99.90
20915;DHT22;10617;52.032;5.298;2022-09-20T08:40:01;13.40;99.90
20915;DHT22;10617;52.032;5.298;2022-09-20T08:44:25;13.40;99.90
20915;DHT22;10617;52.032;5.298;2022-09-20T08:48:31;13.40;99.90
20915;DHT22;10617;52.032;5.298;2022-09-20T08:52:35;13.60;99.90
20915;DHT22;10617;52.032;5.298;2022-09-20T08:56:38;13.70;99.90
20915;DHT22;10617;52.032;5.298;2022-09-20T09:00:40;13.90;99.90
20915;DHT22;10617;52.032;5.298;2022-09-20T09:04:43;13.90;99.90
20915;DHT22;10617;52.032;5.298;2022-09-20T09:08:45;14.00;99.90
20915;DHT22;10617;52.032;5.298;2022-09-20T09:12:50;14.00;99.90
20915;DHT22;10617;52.032;5.298;2022-09-20T09:16:53;14.00;99.90
20915;DHT22;10617;52.032;5.298;2022-09-20T09:20:55;14.00;99.90
20915;DHT22;10617;52.032;5.298;2022-09-20T09:40:14;14.20;99.90
20915;DHT22;10617;52.032;5.298;2022-09-20T09:44:27;14.30;99.90
20915;DHT22;10617;52.032;5.298;2022-09-20T09:48:29;14.30;99.90
20915;DHT22;10617;52.032;5.298;2022-09-20T09:52:31;14.30;99.90
20915;DHT22;10617;52.032;5.298;2022-09-20T09:56:40;14.30;99.90
20915;DHT22;10617;52.032;5.298;2022-09-20T10:10:29;14.40;99.90
20915;DHT22;10617;52.032;5.298;2022-09-20T10:19:08;14.30;99.90
20915;DHT22;10617;52.032;5.298;2022-09-20T10:23:17;14.30;99.90
20915;DHT22;10617;52.032;5.298;2022-09-20T10:31:46;14.20;99.90
20915;DHT22;10617;52.032;5.298;2022-09-20T10:56:42;14.50;99.90
20915;DHT22;10617;52.032;5.298;2022-09-20T11:09:04;14.80;99.90
20915;DHT22;10617;52.032;5.298;2022-09-20T11:13:16;15.00;99.90
20915;DHT22;10617;52.032;5.298;2022-09-20T11:17:25;15.20;99.90
20915;DHT22;10617;52.032;5.298;2022-09-20T11:21:30;15.30;99.90
20915;DHT22;10617;52.032;5.298;2022-09-20T11:29:40;15.50;99.90
20915;DHT22;10617;52.032;5.298;2022-09-20T11:33:47;15.60;99.90
20915;DHT22;10617;52.032;5.298;2022-09-20T11:37:56;15.60;99.90
20915;DHT22;10617;52.032;5.298;2022-09-20T11:41:58;15.70;99.90
20915;DHT22;10617;52.032;5.298;2022-09-20T11:46:02;15.70;99.90
20915;DHT22;10617;52.032;5.298;2022-09-20T11:58:33;15.80;99.90
20915;DHT22;10617;52.032;5.298;2022-09-20T12:02:48;15.80;99.90
20915;DHT22;10617;52.032;5.298;2022-09-20T12:15:05;15.90;99.90
20915;DHT22;10617;52.032;5.298;2022-09-20T12:19:11;15.90;99.90
20915;DHT22;10617;52.032;5.298;2022-09-20T12:31:36;16.00;99.90
20915;DHT22;10617;52.032;5.298;2022-09-20T12:39:43;16.20;99.90
20915;DHT22;10617;52.032;5.298;2022-09-20T12:43:58;16.30;99.90
20915;DHT22;10617;52.032;5.298;2022-09-20T12:48:00;16.40;99.90
20915;DHT22;10617;52.032;5.298;2022-09-20T12:52:02;16.60;99.90
20915;DHT22;10617;52.032;5.298;2022-09-20T12:56:22;16.60;99.90
20915;DHT22;10617;52.032;5.298;2022-09-20T13:04:50;16.50;99.90
20915;DHT22;10617;52.032;5.298;2022-09-20T13:12:56;16.40;99.90
20915;DHT22;10617;52.032;5.298;2022-09-20T13:17:03;16.30;99.90
20915;DHT22;10617;52.032;5.298;2022-09-20T13:21:06;16.30;99.90
20915;DHT22;10617;52.032;5.298;2022-09-20T13:25:15;16.20;99.90
20915;DHT22;10617;52.032;5.298;2022-09-20T13:30:00;16.10;99.90
20915;DHT22;10617;52.032;5.298;2022-09-20T13:33:42;16.00;99.90
20915;DHT22;10617;52.032;5.298;2022-09-20T13:37:54;15.90;99.90
20915;DHT22;10617;52.032;5.298;2022-09-20T13:42:00;15.80;99.90
20915;DHT22;10617;52.032;5.298;2022-09-20T13:46:06;15.80;99.90
20915;DHT22;10617;52.032;5.298;2022-09-20T13:50:16;15.80;99.90
20915;DHT22;10617;52.032;5.298;2022-09-20T13:54:20;15.90;99.90
20915;DHT22;10617;52.032;5.298;2022-09-20T14:02:30;16.20;99.90
20915;DHT22;10617;52.032;5.298;2022-09-20T14:06:32;16.40;99.90
20915;DHT22;10617;52.032;5.298;2022-09-20T14:10:35;16.50;99.90
20915;DHT22;10617;52.032;5.298;2022-09-20T14:14:37;16.60;99.90
20915;DHT22;10617;52.032;5.298;2022-09-20T14:18:39;16.50;99.90
20915;DHT22;10617;52.032;5.298;2022-09-20T14:22:41;16.50;99.90
20915;DHT22;10617;52.032;5.298;2022-09-20T14:26:58;16.50;99.90
20915;DHT22;10617;52.032;5.298;2022-09-20T14:31:07;16.50;99.90
20915;DHT22;10617;52.032;5.298;2022-09-20T14:35:16;16.50;99.90
20915;DHT22;10617;52.032;5.298;2022-09-20T14:39:18;16.50;99.90
20915;DHT22;10617;52.032;5.298;2022-09-20T14:43:30;16.60;99.90
20915;DHT22;10617;52.032;5.298;2022-09-20T14:47:37;16.70;99.90
20915;DHT22;10617;52.032;5.298;2022-09-20T14:51:39;16.70;99.90
20915;DHT22;10617;52.032;5.298;2022-09-20T14:55:54;16.70;99.90
20915;DHT22;10617;52.032;5.298;2022-09-20T14:59:56;16.70;99.90
20915;DHT22;10617;52.032;5.298;2022-09-20T15:03:58;16.70;99.90
20915;DHT22;10617;52.032;5.298;2022-09-20T15:08:07;16.80;99.90
20915;DHT22;10617;52.032;5.298;2022-09-20T15:12:13;16.80;99.90
20915;DHT22;10617;52.032;5.298;2022-09-20T15:16:16;16.70;99.90
20915;DHT22;10617;52.032;5.298;2022-09-20T15:20:19;16.70;99.90
20915;DHT22;10617;52.032;5.298;2022-09-20T15:24:24;16.70;99.90
20915;DHT22;10617;52.032;5.298;2022-09-20T15:28:26;16.70;99.90
20915;DHT22;10617;52.032;5.298;2022-09-20T15:32:28;16.60;99.90
20915;DHT22;10617;52.032;5.298;2022-09-20T15:36:29;16.60;99.90
20915;DHT22;10617;52.032;5.298;2022-09-20T15:40:32;16.60;99.90
20915;DHT22;10617;52.032;5.298;2022-09-20T15:44:34;16.50;99.90
20915;DHT22;10617;52.032;5.298;2022-09-20T15:48:36;16.50;99.90
20915;DHT22;10617;52.032;5.298;2022-09-20T15:52:38;16.50;99.90
20915;DHT22;10617;52.032;5.298;2022-09-20T15:56:42;16.50;99.90
20915;DHT22;10617;52.032;5.298;2022-09-20T16:00:44;16.50;99.90
20915;DHT22;10617;52.032;5.298;2022-09-20T16:04:46;16.60;99.90
20915;DHT22;10617;52.032;5.298;2022-09-20T16:08:48;16.50;99.90
20915;DHT22;10617;52.032;5.298;2022-09-20T16:12:50;16.50;99.90
20915;DHT22;10617;52.032;5.298;2022-09-20T16:16:51;16.50;99.90
20915;DHT22;10617;52.032;5.298;2022-09-20T16:20:53;16.60;99.90
20915;DHT22;10617;52.032;5.298;2022-09-20T16:24:54;16.50;99.90
20915;DHT22;10617;52.032;5.298;2022-09-20T16:28:56;16.50;99.90
20915;DHT22;10617;52.032;5.298;2022-09-20T16:32:58;16.50;99.90
20915;DHT22;10617;52.032;5.298;2022-09-20T16:37:08;16.50;99.90
20915;DHT22;10617;52.032;5.298;2022-09-20T16:41:12;16.50;99.90
20915;DHT22;10617;52.032;5.298;2022-09-20T16:45:13;16.50;99.90
20915;DHT22;10617;52.032;5.298;2022-09-20T16:49:16;16.50;99.90
20915;DHT22;10617;52.032;5.298;2022-09-20T16:53:17;16.50;99.90
20915;DHT22;10617;52.032;5.298;2022-09-20T16:57:19;16.50;99.90
20915;DHT22;10617;52.032;5.298;2022-09-20T17:01:22;16.50;99.90
20915;DHT22;10617;52.032;5.298;2022-09-20T17:05:24;16.50;99.90
20915;DHT22;10617;52.032;5.298;2022-09-20T17:09:26;16.40;99.90
20915;DHT22;10617;52.032;5.298;2022-09-20T17:13:31;16.40;99.90
20915;DHT22;10617;52.032;5.298;2022-09-20T17:17:35;16.30;99.90
20915;DHT22;10617;52.032;5.298;2022-09-20T17:21:38;16.20;99.90
20915;DHT22;10617;52.032;5.298;2022-09-20T17:25:40;16.10;99.90
20915;DHT22;10617;52.032;5.298;2022-09-20T17:29:44;16.00;99.90
20915;DHT22;10617;52.032;5.298;2022-09-20T17:33:45;15.90;99.90
20915;DHT22;10617;52.032;5.298;2022-09-20T17:37:47;15.80;99.90
20915;DHT22;10617;52.032;5.298;2022-09-20T17:41:49;15.70;99.90
20915;DHT22;10617;52.032;5.298;2022-09-20T17:45:51;15.60;99.90
20915;DHT22;10617;52.032;5.298;2022-09-20T17:49:52;15.40;99.90
20915;DHT22;10617;52.032;5.298;2022-09-20T17:53:55;15.30;99.90
20915;DHT22;10617;52.032;5.298;2022-09-20T17:57:56;15.10;99.90
20915;DHT22;10617;52.032;5.298;2022-09-20T18:01:58;14.90;99.90
20915;DHT22;10617;52.032;5.298;2022-09-20T18:06:05;14.80;99.90
20915;DHT22;10617;52.032;5.298;2022-09-20T18:10:10;14.80;99.90
20915;DHT22;10617;52.032;5.298;2022-09-20T18:14:16;14.60;99.90
20915;DHT22;10617;52.032;5.298;2022-09-20T18:18:18;14.60;99.90
20915;DHT22;10617;52.032;5.298;2022-09-20T18:22:20;14.50;99.90
20915;DHT22;10617;52.032;5.298;2022-09-20T18:26:23;14.40;99.90
20915;DHT22;10617;52.032;5.298;2022-09-20T18:30:24;14.30;99.90
20915;DHT22;10617;52.032;5.298;2022-09-20T18:34:26;14.30;99.90
20915;DHT22;10617;52.032;5.298;2022-09-20T18:38:32;14.20;99.90
20915;DHT22;10617;52.032;5.298;2022-09-20T18:42:33;14.10;99.90
20915;DHT22;10617;52.032;5.298;2022-09-20T18:46:35;14.10;99.90
20915;DHT22;10617;52.032;5.298;2022-09-20T18:50:41;14.00;99.90
20915;DHT22;10617;52.032;5.298;2022-09-20T18:54:42;14.00;99.90
20915;DHT22;10617;52.032;5.298;2022-09-20T18:58:44;13.90;99.90
20915;DHT22;10617;52.032;5.298;2022-09-20T19:02:51;13.90;99.90
20915;DHT22;10617;52.032;5.298;2022-09-20T19:11:24;13.80;99.90
20915;DHT22;10617;52.032;5.298;2022-09-20T19:15:37;13.70;99.90
20915;DHT22;10617;52.032;5.298;2022-09-20T19:19:46;13.70;99.90
20915;DHT22;10617;52.032;5.298;2022-09-20T19:24:07;13.60;99.90
20915;DHT22;10617;52.032;5.298;2022-09-20T19:28:13;13.60;99.90
20915;DHT22;10617;52.032;5.298;2022-09-20T19:32:15;13.50;99.90
20915;DHT22;10617;52.032;5.298;2022-09-20T19:36:22;13.60;99.90
20915;DHT22;10617;52.032;5.298;2022-09-20T19:40:33;13.50;99.90
20915;DHT22;10617;52.032;5.298;2022-09-20T19:53:09;13.50;99.90
20915;DHT22;10617;52.032;5.298;2022-09-20T19:57:19;13.40;99.90
20915;DHT22;10617;52.032;5.298;2022-09-20T20:01:21;13.40;99.90
20915;DHT22;10617;52.032;5.298;2022-09-20T20:05:23;13.40;99.90
20915;DHT22;10617;52.032;5.298;2022-09-20T20:09:49;13.40;99.90
20915;DHT22;10617;52.032;5.298;2022-09-20T20:14:35;13.40;99.90
20915;DHT22;10617;52.032;5.298;2022-09-20T20:18:22;13.40;99.90
20915;DHT22;10617;52.032;5.298;2022-09-20T20:22:38;13.40;99.90
20915;DHT22;10617;52.032;5.298;2022-09-20T20:26:42;13.40;99.90
20915;DHT22;10617;52.032;5.298;2022-09-20T20:30:44;13.40;99.90
20915;DHT22;10617;52.032;5.298;2022-09-20T20:34:45;13.40;99.90
20915;DHT22;10617;52.032;5.298;2022-09-20T20:38:47;13.40;99.90
20915;DHT22;10617;52.032;5.298;2022-09-20T20:42:56;13.30;99.90
20915;DHT22;10617;52.032;5.298;2022-09-20T20:47:05;13.30;99.90
20915;DHT22;10617;52.032;5.298;2022-09-20T20:51:11;13.30;99.90
20915;DHT22;10617;52.032;5.298;2022-09-20T20:55:13;13.30;99.90
20915;DHT22;10617;52.032;5.298;2022-09-20T20:59:15;13.30;99.90
20915;DHT22;10617;52.032;5.298;2022-09-20T21:03:17;13.30;99.90
20915;DHT22;10617;52.032;5.298;2022-09-20T21:07:19;13.20;99.90
20915;DHT22;10617;52.032;5.298;2022-09-20T21:11:21;13.20;99.90
20915;DHT22;10617;52.032;5.298;2022-09-20T21:15:23;13.20;99.90
20915;DHT22;10617;52.032;5.298;2022-09-20T21:19:25;13.20;99.90
20915;DHT22;10617;52.032;5.298;2022-09-20T21:23:27;13.20;99.90
20915;DHT22;10617;52.032;5.298;2022-09-20T21:27:29;13.20;99.90
20915;DHT22;10617;52.032;5.298;2022-09-20T21:31:31;13.20;99.90
20915;DHT22;10617;52.032;5.298;2022-09-20T21:35:33;13.10;99.90
20915;DHT22;10617;52.032;5.298;2022-09-20T21:39:35;13.10;99.90
20915;DHT22;10617;52.032;5.298;2022-09-20T21:43:38;13.10;99.90
20915;DHT22;10617;52.032;5.298;2022-09-20T21:47:43;13.10;99.90
20915;DHT22;10617;52.032;5.298;2022-09-20T21:51:49;13.10;99.90
20915;DHT22;10617;52.032;5.298;2022-09-20T21:56:00;13.10;99.90
20915;DHT22;10617;52.032;5.298;2022-09-20T22:00:02;13.10;99.90
20915;DHT22;10617;52.032;5.298;2022-09-20T22:04:10;13.10;99.90
20915;DHT22;10617;52.032;5.298;2022-09-20T22:08:12;13.00;99.90
20915;DHT22;10617;52.032;5.298;2022-09-20T22:12:14;13.00;99.90
20915;DHT22;10617;52.032;5.298;2022-09-20T22:16:17;13.00;99.90
20915;DHT22;10617;52.032;5.298;2022-09-20T22:20:19;13.00;99.90
20915;DHT22;10617;52.032;5.298;2022-09-20T22:24:20;13.00;99.90
20915;DHT22;10617;52.032;5.298;2022-09-20T22:28:22;13.00;99.90
20915;DHT22;10617;52.032;5.298;2022-09-20T22:32:24;12.90;99.90
20915;DHT22;10617;52.032;5.298;2022-09-20T22:36:26;12.90;99.90
20915;DHT22;10617;52.032;5.298;2022-09-20T22:40:28;12.90;99.90
20915;DHT22;10617;52.032;5.298;2022-09-20T22:44:30;12.90;99.90
20915;DHT22;10617;52.032;5.298;2022-09-20T22:48:32;12.80;99.90
20915;DHT22;10617;52.032;5.298;2022-09-20T22:52:34;12.80;99.90
20915;DHT22;10617;52.032;5.298;2022-09-20T22:56:36;12.70;99.90
20915;DHT22;10617;52.032;5.298;2022-09-20T23:00:38;12.60;99.90
20915;DHT22;10617;52.032;5.298;2022-09-20T23:04:39;12.60;99.90
20915;DHT22;10617;52.032;5.298;2022-09-20T23:08:41;12.50;99.90
20915;DHT22;10617;52.032;5.298;2022-09-20T23:12:43;12.50;99.90
20915;DHT22;10617;52.032;5.298;2022-09-20T23:16:44;12.50;99.90
20915;DHT22;10617;52.032;5.298;2022-09-20T23:20:46;12.40;99.90
20915;DHT22;10617;52.032;5.298;2022-09-20T23:24:48;12.30;99.90
20915;DHT22;10617;52.032;5.298;2022-09-20T23:28:55;12.30;99.90
20915;DHT22;10617;52.032;5.298;2022-09-20T23:32:57;12.20;99.90
20915;DHT22;10617;52.032;5.298;2022-09-20T23:36:58;12.20;99.90
20915;DHT22;10617;52.032;5.298;2022-09-20T23:41:08;12.20;99.90
20915;DHT22;10617;52.032;5.298;2022-09-20T23:45:10;12.10;99.90
20915;DHT22;10617;52.032;5.298;2022-09-20T23:49:12;12.10;99.90
20915;DHT22;10617;52.032;5.298;2022-09-20T23:53:14;12.10;99.90
20915;DHT22;10617;52.032;5.298;2022-09-20T23:57:15;12.00;99.90
